createdAt,value
2019-01-24T00:00:05.139Z,111.00
2019-01-24T00:02:52.868Z,108.17
2019-01-24T00:05:40.190Z,105.07
2019-01-24T00:08:27.920Z,96.77
2019-01-24T00:11:15.461Z,98.07
2019-01-24T00:14:03.282Z,98.60
2019-01-24T00:16:50.908Z,100.70
2019-01-24T00:19:39.666Z,90.40
2019-01-24T00:22:27.306Z,104.70
2019-01-24T00:25:14.620Z,106.20
2019-01-24T00:28:02.256Z,93.20
2019-01-24T00:30:49.872Z,98.07
2019-01-24T00:33:37.708Z,95.53
2019-01-24T00:36:25.543Z,90.80
2019-01-24T00:39:13.278Z,90.47
2019-01-24T00:42:01.001Z,101.77
2019-01-24T00:44:48.357Z,91.20
2019-01-24T00:47:35.950Z,83.43
2019-01-24T00:50:24.091Z,81.40
2019-01-24T00:53:11.310Z,84.80
2019-01-24T00:55:58.939Z,89.60
2019-01-24T00:58:46.774Z,88.20
2019-01-24T01:01:34.520Z,91.87
2019-01-24T01:04:22.029Z,93.53
2019-01-24T01:07:09.762Z,95.27
2019-01-24T01:09:57.700Z,89.17
2019-01-24T01:12:45.395Z,86.87
2019-01-24T01:15:33.982Z,89.03
2019-01-24T01:18:21.502Z,82.30
2019-01-24T01:21:09.233Z,83.43
2019-01-24T01:23:57.070Z,81.30
2019-01-24T01:26:44.487Z,82.57
2019-01-24T01:29:32.119Z,80.13
2019-01-24T01:32:19.953Z,79.43
2019-01-24T01:35:08.190Z,86.37
2019-01-24T01:37:55.313Z,81.17
2019-01-24T01:40:42.634Z,82.13
2019-01-24T01:43:30.365Z,81.43
2019-01-24T01:46:18.198Z,75.77
2019-01-24T01:49:05.558Z,69.77
2019-01-24T01:51:53.352Z,78.33
2019-01-24T01:54:41.290Z,75.87
2019-01-24T01:57:28.713Z,79.47
2019-01-24T02:00:21.973Z,78.97
2019-01-24T02:03:09.676Z,78.27
2019-01-24T02:05:57.207Z,74.73
2019-01-24T02:08:45.036Z,78.90
2019-01-24T02:11:32.972Z,76.00
2019-01-24T02:14:20.188Z,81.63
2019-01-24T02:17:07.412Z,90.30
2019-01-24T02:19:54.939Z,81.77
2019-01-24T02:22:42.666Z,79.93
2019-01-24T02:25:29.859Z,82.03
2019-01-24T02:28:17.516Z,86.77
2019-01-24T02:31:04.942Z,83.03
2019-01-24T02:33:52.162Z,84.93
2019-01-24T02:36:39.685Z,84.00
2019-01-24T02:39:27.415Z,86.03
2019-01-24T02:42:14.738Z,93.00
2019-01-24T02:45:02.065Z,78.90
2019-01-24T02:47:50.009Z,83.73
2019-01-24T02:50:37.416Z,85.87
2019-01-24T02:53:24.431Z,78.97
2019-01-24T02:56:12.061Z,77.93
2019-01-24T02:59:00.304Z,77.07
2019-01-24T03:01:47.829Z,77.73
2019-01-24T03:04:35.262Z,77.83
2019-01-24T03:07:22.702Z,87.80
2019-01-24T03:10:13.014Z,79.77
2019-01-24T03:13:00.911Z,80.50
2019-01-24T03:15:48.639Z,82.97
2019-01-24T03:18:36.261Z,75.93
2019-01-24T03:21:24.101Z,80.33
2019-01-24T03:24:11.930Z,75.93
2019-01-24T03:26:59.455Z,83.40
2019-01-24T03:29:46.574Z,74.43
2019-01-24T03:32:34.131Z,83.37
2019-01-24T03:35:24.618Z,80.93
2019-01-24T03:38:12.020Z,78.80
2019-01-24T03:40:59.855Z,75.90
2019-01-24T03:43:47.691Z,76.70
2019-01-24T03:46:35.110Z,73.80
2019-01-24T03:49:22.566Z,76.83
2019-01-24T03:52:10.059Z,76.40
2019-01-24T03:54:57.630Z,71.77
2019-01-24T03:57:45.114Z,75.50
2019-01-24T04:00:33.048Z,73.37
2019-01-24T04:03:20.675Z,74.77
2019-01-24T04:06:08.136Z,74.17
2019-01-24T04:08:55.116Z,73.83
2019-01-24T04:11:43.030Z,74.17
2019-01-24T04:14:30.576Z,76.27
2019-01-24T04:17:18.206Z,81.83
2019-01-24T04:20:08.705Z,70.20
2019-01-24T04:22:55.918Z,73.83
2019-01-24T04:25:43.859Z,72.73
2019-01-24T04:28:33.288Z,70.43
2019-01-24T04:31:20.753Z,71.17
2019-01-24T04:34:07.969Z,72.23
2019-01-24T04:36:55.393Z,66.37
2019-01-24T04:39:43.026Z,68.97
2019-01-24T04:42:30.755Z,70.90
2019-01-24T04:45:18.799Z,72.20
2019-01-24T04:48:06.214Z,68.50
2019-01-24T04:50:53.652Z,67.50
2019-01-24T04:53:41.065Z,70.33
2019-01-24T04:56:28.691Z,68.90
2019-01-24T04:59:16.424Z,69.57
2019-01-24T05:02:04.564Z,65.17
2019-01-24T05:04:52.510Z,66.00
2019-01-24T05:07:40.234Z,64.17
2019-01-24T05:10:27.755Z,67.23
2019-01-24T05:13:15.386Z,69.80
2019-01-24T05:16:02.911Z,65.77
2019-01-24T05:18:50.745Z,68.53
2019-01-24T05:21:37.860Z,64.83
2019-01-24T05:24:25.491Z,64.10
2019-01-24T05:27:13.426Z,64.67
2019-01-24T05:30:01.063Z,62.27
2019-01-24T05:32:48.581Z,62.80
2019-01-24T05:35:36.008Z,62.90
2019-01-24T05:38:24.041Z,65.20
2019-01-24T05:41:11.364Z,63.03
2019-01-24T05:43:58.888Z,65.27
2019-01-24T05:46:47.034Z,61.17
2019-01-24T05:49:34.761Z,63.50
2019-01-24T05:52:22.287Z,65.00
2019-01-24T05:55:14.572Z,65.13
2019-01-24T05:58:02.050Z,68.13
2019-01-24T06:00:49.895Z,66.50
2019-01-24T06:03:37.539Z,70.60
2019-01-24T06:06:25.040Z,66.40
2019-01-24T06:09:12.625Z,63.37
2019-01-24T06:12:00.304Z,66.03
2019-01-24T06:14:47.721Z,68.17
2019-01-24T06:17:35.450Z,65.87
2019-01-24T06:20:22.979Z,66.93
2019-01-24T06:23:11.250Z,66.27
2019-01-24T06:25:58.336Z,64.60
2019-01-24T06:28:45.792Z,60.77
2019-01-24T06:31:32.877Z,64.00
2019-01-24T06:34:19.997Z,63.87
2019-01-24T06:37:07.623Z,65.30
2019-01-24T06:39:54.743Z,67.13
2019-01-24T06:42:42.369Z,66.97
2019-01-24T06:45:29.997Z,71.07
2019-01-24T06:48:17.526Z,64.03
2019-01-24T06:51:05.252Z,69.53
2019-01-24T06:53:52.609Z,69.70
2019-01-24T06:56:39.901Z,61.13
2019-01-24T06:59:27.425Z,66.10
2019-01-24T07:02:14.743Z,64.33
2019-01-24T07:05:02.269Z,66.33
2019-01-24T07:07:49.694Z,69.43
2019-01-24T07:10:37.225Z,65.73
2019-01-24T07:13:24.951Z,62.30
2019-01-24T07:16:12.480Z,69.37
2019-01-24T07:19:01.859Z,68.83
2019-01-24T07:21:49.175Z,65.67
2019-01-24T07:24:36.797Z,69.00
2019-01-24T07:27:23.815Z,65.03
2019-01-24T07:30:16.616Z,62.57
2019-01-24T07:33:03.601Z,63.23
2019-01-24T07:35:50.898Z,62.20
2019-01-24T07:38:38.115Z,61.40
2019-01-24T07:41:25.641Z,59.67
2019-01-24T07:44:13.069Z,57.07
2019-01-24T07:47:00.591Z,62.67
2019-01-24T07:49:48.015Z,64.63
2019-01-24T07:52:35.744Z,60.30
2019-01-24T07:55:23.376Z,65.30
2019-01-24T07:58:10.900Z,73.53
2019-01-24T08:00:58.065Z,64.67
2019-01-24T08:06:47.338Z,67.80
2019-01-24T08:09:34.773Z,75.70
2019-01-24T08:12:22.186Z,74.23
2019-01-24T08:15:12.257Z,72.83
2019-01-24T08:17:59.699Z,72.80
2019-01-24T08:20:47.459Z,75.37
2019-01-24T08:23:34.548Z,68.03
2019-01-24T08:26:22.788Z,69.87
2019-01-24T08:29:10.311Z,69.33
2019-01-24T08:31:57.735Z,72.20
2019-01-24T08:34:45.467Z,70.10
2019-01-24T08:37:33.200Z,67.90
2019-01-24T08:40:24.890Z,70.40
2019-01-24T08:43:12.390Z,68.13
2019-01-24T08:45:59.669Z,74.80
2019-01-24T08:48:46.994Z,75.17
2019-01-24T08:51:34.517Z,71.87
2019-01-24T08:54:21.841Z,73.17
2019-01-24T08:57:08.958Z,70.83
2019-01-24T08:59:56.585Z,74.70
2019-01-24T09:02:44.007Z,65.87
2019-01-24T09:05:31.265Z,63.07
2019-01-24T09:08:18.751Z,63.17
2019-01-24T09:11:06.684Z,73.07
2019-01-24T09:13:53.600Z,63.93
2019-01-24T09:16:40.616Z,62.33
2019-01-24T09:19:28.551Z,62.17
2019-01-24T09:22:15.979Z,63.80
2019-01-24T09:25:05.299Z,65.03
2019-01-24T09:27:52.563Z,63.40
2019-01-24T09:30:40.499Z,62.43
2019-01-24T09:33:27.414Z,62.57
2019-01-24T09:36:14.865Z,58.60
2019-01-24T09:39:02.056Z,56.13
2019-01-24T09:41:49.683Z,57.10
2019-01-24T09:44:37.514Z,59.73
2019-01-24T09:47:24.939Z,61.63
2019-01-24T09:50:15.853Z,61.77
2019-01-24T09:53:03.370Z,64.53
2019-01-24T09:55:51.204Z,56.67
2019-01-24T09:58:38.833Z,56.10
2019-01-24T10:01:26.565Z,61.53
2019-01-24T10:04:14.089Z,57.00
2019-01-24T10:07:01.513Z,58.73
2019-01-24T10:09:49.245Z,58.67
2019-01-24T10:12:36.987Z,58.53
2019-01-24T10:15:24.710Z,52.80
2019-01-24T10:18:12.641Z,60.60
2019-01-24T10:21:00.375Z,58.73
2019-01-24T10:23:47.696Z,56.83
2019-01-24T10:26:35.632Z,58.40
2019-01-24T10:29:23.055Z,57.47
2019-01-24T10:32:10.680Z,57.33
2019-01-24T10:34:58.106Z,58.10
2019-01-24T10:37:45.837Z,56.40
2019-01-24T10:40:33.982Z,55.70
2019-01-24T10:43:21.201Z,52.63
2019-01-24T10:46:09.028Z,55.50
2019-01-24T10:48:56.661Z,55.47
2019-01-24T10:51:44.495Z,53.30
2019-01-24T10:54:32.119Z,55.73
2019-01-24T10:57:19.648Z,52.90
2019-01-24T11:00:16.531Z,51.30
2019-01-24T11:03:06.319Z,56.40
2019-01-24T11:05:53.692Z,51.77
2019-01-24T11:08:40.812Z,53.93
2019-01-24T11:11:28.438Z,51.50
2019-01-24T11:14:15.453Z,49.87
2019-01-24T11:17:03.085Z,47.83
2019-01-24T11:19:51.426Z,50.93
2019-01-24T11:22:39.977Z,51.77
2019-01-24T11:25:28.221Z,53.07
2019-01-24T11:28:15.747Z,49.80
2019-01-24T11:31:03.480Z,49.13
2019-01-24T11:33:51.208Z,51.93
2019-01-24T11:36:38.325Z,51.70
2019-01-24T11:39:26.055Z,50.57
2019-01-24T11:42:13.180Z,52.40
2019-01-24T11:45:01.184Z,49.73
2019-01-24T11:47:49.661Z,51.10
2019-01-24T11:50:37.390Z,53.57
2019-01-24T11:53:24.608Z,53.73
2019-01-24T11:56:12.346Z,52.87
2019-01-24T11:58:59.662Z,52.50
2019-01-24T12:01:47.191Z,50.20
2019-01-24T12:04:35.024Z,52.50
2019-01-24T12:07:22.342Z,51.27
2019-01-24T12:10:15.807Z,50.77
2019-01-24T12:13:03.335Z,51.93
2019-01-24T12:15:50.558Z,52.57
2019-01-24T12:18:38.186Z,50.23
2019-01-24T12:21:25.299Z,53.40
2019-01-24T12:24:13.031Z,48.73
2019-01-24T12:27:00.564Z,51.20
2019-01-24T12:29:47.570Z,51.83
2019-01-24T12:32:35.406Z,54.63
2019-01-24T12:35:23.338Z,53.37
2019-01-24T12:38:10.870Z,52.97
2019-01-24T12:40:58.391Z,49.90
2019-01-24T12:43:46.234Z,50.47
2019-01-24T12:46:33.446Z,53.00
2019-01-24T12:49:21.280Z,56.40
2019-01-24T12:52:08.914Z,52.53
2019-01-24T12:54:56.352Z,52.93
2019-01-24T12:57:43.859Z,52.57
2019-01-24T13:00:34.152Z,51.77
2019-01-24T13:03:21.573Z,53.57
2019-01-24T13:06:09.100Z,55.27
2019-01-24T13:08:56.523Z,58.23
2019-01-24T13:11:44.256Z,54.70
2019-01-24T13:14:31.577Z,54.13
2019-01-24T13:17:19.003Z,55.97
2019-01-24T13:20:09.903Z,58.53
2019-01-24T13:22:57.635Z,52.63
2019-01-24T13:25:44.956Z,53.57
2019-01-24T13:28:32.791Z,52.30
2019-01-24T13:31:19.823Z,50.23
2019-01-24T13:34:07.538Z,52.83
2019-01-24T13:36:54.555Z,55.13
2019-01-24T13:39:41.975Z,52.63
2019-01-24T13:42:29.192Z,54.33
2019-01-24T13:45:22.221Z,53.80
2019-01-24T13:48:09.885Z,57.20
2019-01-24T13:50:57.738Z,54.53
2019-01-24T13:53:45.038Z,56.53
2019-01-24T13:56:32.630Z,54.67
2019-01-24T13:59:20.298Z,59.07
2019-01-24T14:02:07.507Z,60.97
2019-01-24T14:04:55.252Z,56.10
2019-01-24T14:07:42.869Z,52.50
2019-01-24T14:10:30.293Z,52.13
2019-01-24T14:13:18.128Z,57.90
2019-01-24T14:16:06.063Z,56.73
2019-01-24T14:18:53.511Z,58.50
2019-01-24T14:21:40.607Z,59.30
2019-01-24T14:24:28.128Z,54.80
2019-01-24T14:27:15.409Z,58.30
2019-01-24T14:30:03.286Z,59.30
2019-01-24T14:32:50.809Z,55.53
2019-01-24T14:35:38.132Z,57.73
2019-01-24T14:38:25.761Z,57.77
2019-01-24T14:41:13.704Z,55.87
2019-01-24T14:44:20.253Z,54.73
2019-01-24T14:47:07.574Z,59.47
2019-01-24T14:49:55.471Z,55.40
2019-01-24T14:52:43.174Z,56.13
2019-01-24T14:55:30.665Z,59.13
2019-01-24T14:58:18.295Z,58.77
2019-01-24T15:01:06.970Z,53.83
2019-01-24T15:03:54.680Z,60.17
2019-01-24T15:06:42.308Z,58.03
2019-01-24T15:09:29.834Z,56.63
2019-01-24T15:12:17.462Z,55.63
2019-01-24T15:15:07.858Z,54.97
2019-01-24T15:17:55.408Z,55.57
2019-01-24T15:20:42.983Z,56.67
2019-01-24T15:23:31.691Z,56.93
2019-01-24T15:26:19.500Z,64.60
2019-01-24T15:29:07.022Z,60.63
2019-01-24T15:31:54.141Z,61.07
2019-01-24T15:34:42.193Z,63.10
2019-01-24T15:37:30.015Z,63.70
2019-01-24T15:40:23.658Z,60.13
2019-01-24T15:43:10.804Z,61.40
2019-01-24T15:45:58.136Z,59.23
2019-01-24T15:48:45.856Z,61.67
2019-01-24T15:51:32.966Z,61.53
2019-01-24T15:54:20.082Z,64.50
2019-01-24T15:57:07.915Z,61.87
2019-01-24T15:59:55.650Z,61.57
2019-01-24T16:02:43.198Z,57.13
2019-01-24T16:05:30.699Z,63.53
2019-01-24T16:08:18.123Z,63.70
2019-01-24T16:11:08.516Z,63.00
2019-01-24T16:14:03.850Z,62.90
2019-01-24T16:16:55.094Z,63.17
2019-01-24T16:19:42.465Z,62.60
2019-01-24T16:22:30.098Z,59.30
2019-01-24T16:25:19.813Z,64.30
2019-01-24T16:28:07.710Z,59.90
2019-01-24T16:30:56.625Z,60.13
2019-01-24T16:33:44.188Z,61.13
2019-01-24T16:36:32.536Z,60.30
2019-01-24T16:39:20.165Z,62.90
2019-01-24T16:42:07.895Z,62.60
2019-01-24T16:44:55.336Z,65.57
2019-01-24T16:47:42.437Z,62.57
2019-01-24T16:50:30.166Z,63.30
2019-01-24T16:53:17.597Z,62.97
2019-01-24T16:56:05.740Z,57.60
2019-01-24T16:58:52.748Z,62.80
2019-01-24T17:01:40.286Z,61.67
2019-01-24T17:04:27.639Z,64.43
2019-01-24T17:07:15.329Z,66.60
2019-01-24T17:10:03.271Z,62.87
2019-01-24T17:12:51.304Z,61.10
2019-01-24T17:15:38.522Z,63.27
2019-01-24T17:18:26.352Z,64.37
2019-01-24T17:21:14.489Z,61.43
2019-01-24T17:24:02.021Z,60.93
2019-01-24T17:26:49.751Z,64.07
2019-01-24T17:29:37.278Z,58.00
2019-01-24T17:32:24.923Z,64.57
2019-01-24T17:35:12.676Z,61.53
2019-01-24T17:38:00.164Z,66.67
2019-01-24T17:40:47.592Z,68.30
2019-01-24T17:43:35.219Z,65.53
2019-01-24T17:46:22.649Z,66.20
2019-01-24T17:49:10.475Z,63.20
2019-01-24T17:51:58.202Z,62.07
2019-01-24T17:54:45.750Z,58.97
2019-01-24T17:57:33.258Z,63.67
2019-01-24T18:00:23.405Z,60.13
2019-01-24T18:03:11.081Z,63.93
2019-01-24T18:05:58.496Z,64.80
2019-01-24T18:08:46.125Z,67.07
2019-01-24T18:11:36.928Z,63.37
2019-01-24T18:14:24.460Z,68.10
2019-01-24T18:17:16.333Z,67.57
2019-01-24T18:20:05.444Z,65.60
2019-01-24T18:22:52.971Z,67.63
2019-01-24T18:25:40.399Z,68.27
2019-01-24T18:28:28.127Z,66.97
2019-01-24T18:31:16.065Z,64.47
2019-01-24T18:34:04.115Z,67.90
2019-01-24T18:36:51.658Z,64.90
2019-01-24T18:39:39.051Z,63.53
2019-01-24T18:42:26.582Z,67.30
2019-01-24T18:45:22.457Z,64.77
2019-01-24T18:48:10.232Z,64.03
2019-01-24T18:50:57.861Z,65.70
2019-01-24T18:53:45.287Z,63.27
2019-01-24T18:56:32.507Z,63.47
2019-01-24T18:59:20.027Z,65.87
2019-01-24T19:02:07.785Z,65.03
2019-01-24T19:04:55.598Z,66.17
2019-01-24T19:07:43.585Z,72.83
2019-01-24T19:10:31.270Z,73.30
2019-01-24T19:13:19.358Z,72.83
2019-01-24T19:16:07.249Z,67.73
2019-01-24T19:18:55.997Z,64.60
2019-01-24T19:21:44.952Z,68.67
2019-01-24T19:24:32.410Z,72.03
2019-01-24T19:27:19.702Z,66.20
2019-01-24T19:30:25.508Z,66.70
2019-01-24T19:33:13.487Z,65.73
2019-01-24T19:36:00.634Z,67.63
2019-01-24T19:38:53.077Z,69.83
2019-01-24T19:41:37.602Z,72.37
2019-01-24T19:44:25.386Z,72.17
2019-01-24T19:47:13.242Z,67.70
2019-01-24T19:50:01.993Z,70.37
2019-01-24T19:52:49.471Z,68.67
2019-01-24T19:55:37.787Z,69.50
2019-01-24T19:58:25.643Z,73.83
2019-01-24T20:01:13.570Z,69.77
2019-01-24T20:04:00.886Z,69.17
2019-01-24T20:06:49.276Z,63.93
2019-01-24T20:09:37.266Z,64.50
2019-01-24T20:12:24.694Z,65.00
2019-01-24T20:15:15.337Z,72.53
2019-01-24T20:18:03.030Z,67.23
2019-01-24T20:20:50.444Z,69.20
2019-01-24T20:23:37.580Z,69.17
2019-01-24T20:26:25.403Z,72.37
2019-01-24T20:29:13.025Z,72.53
2019-01-24T20:32:00.739Z,73.53
2019-01-24T20:34:48.113Z,70.57
2019-01-24T20:37:35.908Z,67.83
2019-01-24T20:40:23.697Z,67.13
2019-01-24T20:43:13.082Z,64.43
2019-01-24T20:46:00.222Z,66.23
2019-01-24T20:48:47.758Z,67.57
2019-01-24T20:51:35.280Z,68.27
2019-01-24T20:54:23.014Z,67.13
2019-01-24T20:57:10.541Z,67.20
2019-01-24T20:59:58.171Z,72.37
2019-01-24T21:02:47.133Z,66.10
2019-01-24T21:05:35.371Z,64.17
2019-01-24T21:08:23.411Z,70.13
2019-01-24T21:11:10.946Z,69.67
2019-01-24T21:13:58.358Z,66.63
2019-01-24T21:16:45.781Z,71.63
2019-01-24T21:19:33.129Z,67.47
2019-01-24T21:22:21.155Z,70.03
2019-01-24T21:25:11.561Z,73.03
2019-01-24T21:27:59.367Z,75.67
2019-01-24T21:30:47.308Z,70.60
2019-01-24T21:33:36.272Z,80.37
2019-01-24T21:36:25.144Z,81.03
2019-01-24T21:39:14.730Z,74.83
2019-01-24T21:42:02.224Z,75.17
2019-01-24T21:44:52.484Z,73.10
2019-01-24T21:47:39.527Z,76.40
2019-01-24T21:50:31.974Z,74.77
2019-01-24T21:53:20.726Z,76.33
2019-01-24T21:56:09.179Z,70.37
2019-01-24T21:58:56.612Z,75.00
2019-01-24T22:01:44.328Z,78.43
2019-01-24T22:04:32.576Z,75.50
2019-01-24T22:07:20.305Z,79.63
2019-01-24T22:10:11.206Z,77.73
2019-01-24T22:12:59.347Z,75.83
2019-01-24T22:15:47.180Z,76.73
2019-01-24T22:18:34.915Z,76.40
2019-01-24T22:21:22.852Z,80.60
2019-01-24T22:24:11.297Z,75.13
2019-01-24T22:26:59.334Z,74.93
2019-01-24T22:29:46.862Z,72.47
2019-01-24T22:32:34.593Z,77.53
2019-01-24T22:35:22.324Z,72.00
2019-01-24T22:38:09.962Z,73.93
2019-01-24T22:40:57.380Z,74.60
2019-01-24T22:43:44.805Z,81.53
2019-01-24T22:46:32.532Z,74.77
2019-01-24T22:49:19.751Z,76.63
2019-01-24T22:52:07.067Z,72.57
2019-01-24T22:54:54.290Z,75.93
2019-01-24T22:57:41.789Z,72.03
2019-01-24T23:00:53.920Z,78.73
2019-01-24T23:03:43.765Z,74.77
2019-01-24T23:06:31.120Z,86.57
2019-01-24T23:09:18.446Z,80.43
2019-01-24T23:12:05.966Z,77.40
2019-01-24T23:14:53.391Z,75.40
2019-01-24T23:17:41.023Z,82.10
2019-01-24T23:20:28.714Z,75.13
2019-01-24T23:23:16.284Z,82.07
2019-01-24T23:26:03.907Z,82.23
2019-01-24T23:28:51.231Z,78.60
2019-01-24T23:31:39.063Z,79.73
2019-01-24T23:34:26.281Z,86.60
2019-01-24T23:37:14.322Z,84.67
2019-01-24T23:40:01.471Z,79.27
2019-01-24T23:42:49.065Z,82.83
2019-01-24T23:45:36.489Z,79.73
2019-01-24T23:48:24.135Z,79.07
2019-01-24T23:51:11.653Z,83.90
2019-01-24T23:53:59.173Z,75.10
2019-01-24T23:56:46.808Z,78.43
2019-01-24T23:59:34.633Z,73.17
